sensor_id;sensor_type;location;lat;lon;timestamp;temperature;humidity
12622;DHT22;6376;48.182;-1.644;2024-01-11T00:01:23;8.40;73.60
12622;DHT22;6376;48.182;-1.644;2024-01-11T00:03:49;8.40;73.80
12622;DHT22;6376;48.182;-1.644;2024-01-11T00:06:14;8.40;73.60
12622;DHT22;6376;48.182;-1.644;2024-01-11T00:08:40;8.40;73.60
12622;DHT22;6376;48.182;-1.644;2024-01-11T00:11:06;8.40;73.60
12622;DHT22;6376;48.182;-1.644;2024-01-11T00:13:31;8.40;73.50
12622;DHT22;6376;48.182;-1.644;2024-01-11T00:15:57;8.40;73.60
12622;DHT22;6376;48.182;-1.644;2024-01-11T00:18:22;8.40;73.80
12622;DHT22;6376;48.182;-1.644;2024-01-11T00:20:48;8.40;73.60
12622;DHT22;6376;48.182;-1.644;2024-01-11T00:23:14;8.40;73.60
12622;DHT22;6376;48.182;-1.644;2024-01-11T00:25:39;8.40;73.60
12622;DHT22;6376;48.182;-1.644;2024-01-11T00:28:05;8.40;73.60
12622;DHT22;6376;48.182;-1.644;2024-01-11T00:30:31;8.30;73.50
12622;DHT22;6376;48.182;-1.644;2024-01-11T00:32:56;8.30;73.60
12622;DHT22;6376;48.182;-1.644;2024-01-11T00:35:22;8.40;73.60
12622;DHT22;6376;48.182;-1.644;2024-01-11T00:37:47;8.40;73.60
12622;DHT22;6376;48.182;-1.644;2024-01-11T00:40:13;8.30;73.40
12622;DHT22;6376;48.182;-1.644;2024-01-11T00:42:39;8.30;73.60
12622;DHT22;6376;48.182;-1.644;2024-01-11T00:45:05;8.30;73.50
12622;DHT22;6376;48.182;-1.644;2024-01-11T00:47:30;8.40;73.60
12622;DHT22;6376;48.182;-1.644;2024-01-11T00:49:56;8.30;73.40
12622;DHT22;6376;48.182;-1.644;2024-01-11T00:52:21;8.30;73.50
12622;DHT22;6376;48.182;-1.644;2024-01-11T00:54:47;8.30;73.40
12622;DHT22;6376;48.182;-1.644;2024-01-11T00:57:13;8.30;73.60
12622;DHT22;6376;48.182;-1.644;2024-01-11T00:59:40;8.30;73.50
12622;DHT22;6376;48.182;-1.644;2024-01-11T01:02:06;8.30;73.40
12622;DHT22;6376;48.182;-1.644;2024-01-11T01:04:31;8.40;73.70
12622;DHT22;6376;48.182;-1.644;2024-01-11T01:06:57;8.30;73.60
12622;DHT22;6376;48.182;-1.644;2024-01-11T01:09:23;8.30;73.60
12622;DHT22;6376;48.182;-1.644;2024-01-11T01:11:48;8.30;73.60
12622;DHT22;6376;48.182;-1.644;2024-01-11T01:14:14;8.30;73.60
12622;DHT22;6376;48.182;-1.644;2024-01-11T01:16:40;8.30;74.40
12622;DHT22;6376;48.182;-1.644;2024-01-11T01:19:05;8.30;73.80
12622;DHT22;6376;48.182;-1.644;2024-01-11T01:21:31;8.30;73.80
12622;DHT22;6376;48.182;-1.644;2024-01-11T01:23:56;8.30;73.60
12622;DHT22;6376;48.182;-1.644;2024-01-11T01:26:22;8.30;74.40
12622;DHT22;6376;48.182;-1.644;2024-01-11T01:28:48;8.30;73.80
12622;DHT22;6376;48.182;-1.644;2024-01-11T01:31:13;8.30;73.80
12622;DHT22;6376;48.182;-1.644;2024-01-11T01:33:40;8.30;73.70
12622;DHT22;6376;48.182;-1.644;2024-01-11T01:36:09;8.30;73.80
12622;DHT22;6376;48.182;-1.644;2024-01-11T01:38:35;8.30;73.80
12622;DHT22;6376;48.182;-1.644;2024-01-11T01:41:01;8.20;73.60
12622;DHT22;6376;48.182;-1.644;2024-01-11T01:43:26;8.30;73.80
12622;DHT22;6376;48.182;-1.644;2024-01-11T01:45:52;8.30;73.80
12622;DHT22;6376;48.182;-1.644;2024-01-11T01:48:18;8.20;73.70
12622;DHT22;6376;48.182;-1.644;2024-01-11T01:50:44;8.20;73.70
12622;DHT22;6376;48.182;-1.644;2024-01-11T01:53:22;8.20;73.80
12622;DHT22;6376;48.182;-1.644;2024-01-11T01:55:49;8.20;73.80
12622;DHT22;6376;48.182;-1.644;2024-01-11T01:58:17;8.20;73.80
12622;DHT22;6376;48.182;-1.644;2024-01-11T02:00:44;8.20;73.90
12622;DHT22;6376;48.182;-1.644;2024-01-11T02:03:11;8.20;73.90
12622;DHT22;6376;48.182;-1.644;2024-01-11T02:05:37;8.20;73.70
12622;DHT22;6376;48.182;-1.644;2024-01-11T02:08:06;8.20;73.80
12622;DHT22;6376;48.182;-1.644;2024-01-11T02:10:35;8.20;73.90
12622;DHT22;6376;48.182;-1.644;2024-01-11T02:13:01;8.20;73.90
12622;DHT22;6376;48.182;-1.644;2024-01-11T02:15:26;8.10;73.80
12622;DHT22;6376;48.182;-1.644;2024-01-11T02:17:52;8.10;73.90
12622;DHT22;6376;48.182;-1.644;2024-01-11T02:20:18;8.10;73.90
12622;DHT22;6376;48.182;-1.644;2024-01-11T02:22:47;8.10;73.80
12622;DHT22;6376;48.182;-1.644;2024-01-11T02:25:15;8.10;73.70
12622;DHT22;6376;48.182;-1.644;2024-01-11T02:27:48;8.10;74.70
12622;DHT22;6376;48.182;-1.644;2024-01-11T02:30:14;8.10;73.90
12622;DHT22;6376;48.182;-1.644;2024-01-11T02:32:40;8.10;73.70
12622;DHT22;6376;48.182;-1.644;2024-01-11T02:35:07;8.10;73.90
12622;DHT22;6376;48.182;-1.644;2024-01-11T02:37:33;8.10;73.80
12622;DHT22;6376;48.182;-1.644;2024-01-11T02:39:59;8.10;73.90
12622;DHT22;6376;48.182;-1.644;2024-01-11T02:42:24;8.10;73.80
12622;DHT22;6376;48.182;-1.644;2024-01-11T02:44:50;8.10;73.90
12622;DHT22;6376;48.182;-1.644;2024-01-11T02:47:16;8.10;73.80
12622;DHT22;6376;48.182;-1.644;2024-01-11T02:49:41;8.10;73.90
12622;DHT22;6376;48.182;-1.644;2024-01-11T02:52:07;8.00;73.70
12622;DHT22;6376;48.182;-1.644;2024-01-11T02:54:32;8.10;73.80
12622;DHT22;6376;48.182;-1.644;2024-01-11T02:56:58;8.10;73.80
12622;DHT22;6376;48.182;-1.644;2024-01-11T02:59:24;8.10;73.80
12622;DHT22;6376;48.182;-1.644;2024-01-11T03:01:50;8.10;73.80
12622;DHT22;6376;48.182;-1.644;2024-01-11T03:04:15;8.00;73.70
12622;DHT22;6376;48.182;-1.644;2024-01-11T03:06:42;8.00;73.80
12622;DHT22;6376;48.182;-1.644;2024-01-11T03:09:08;8.00;73.80
12622;DHT22;6376;48.182;-1.644;2024-01-11T03:11:33;8.00;73.80
12622;DHT22;6376;48.182;-1.644;2024-01-11T03:13:59;8.00;73.80
12622;DHT22;6376;48.182;-1.644;2024-01-11T03:16:25;8.00;73.80
12622;DHT22;6376;48.182;-1.644;2024-01-11T03:18:50;8.00;73.80
12622;DHT22;6376;48.182;-1.644;2024-01-11T03:21:16;8.00;73.70
12622;DHT22;6376;48.182;-1.644;2024-01-11T03:23:41;8.00;73.80
12622;DHT22;6376;48.182;-1.644;2024-01-11T03:26:15;8.10;73.70
12622;DHT22;6376;48.182;-1.644;2024-01-11T03:28:41;8.00;73.70
12622;DHT22;6376;48.182;-1.644;2024-01-11T03:31:08;8.00;73.50
12622;DHT22;6376;48.182;-1.644;2024-01-11T03:33:34;8.00;73.70
12622;DHT22;6376;48.182;-1.644;2024-01-11T03:36:05;8.00;73.50
12622;DHT22;6376;48.182;-1.644;2024-01-11T03:38:31;8.00;73.50
12622;DHT22;6376;48.182;-1.644;2024-01-11T03:40:57;8.00;73.60
12622;DHT22;6376;48.182;-1.644;2024-01-11T03:43:22;8.00;73.60
12622;DHT22;6376;48.182;-1.644;2024-01-11T03:45:48;8.00;73.50
12622;DHT22;6376;48.182;-1.644;2024-01-11T03:48:13;8.00;73.50
12622;DHT22;6376;48.182;-1.644;2024-01-11T03:50:39;8.00;73.50
12622;DHT22;6376;48.182;-1.644;2024-01-11T03:53:05;8.00;73.50
12622;DHT22;6376;48.182;-1.644;2024-01-11T03:55:30;8.00;73.30
12622;DHT22;6376;48.182;-1.644;2024-01-11T03:57:56;8.00;73.40
12622;DHT22;6376;48.182;-1.644;2024-01-11T04:00:21;8.00;73.30
12622;DHT22;6376;48.182;-1.644;2024-01-11T04:02:47;8.00;73.50
12622;DHT22;6376;48.182;-1.644;2024-01-11T04:05:13;8.00;73.40
12622;DHT22;6376;48.182;-1.644;2024-01-11T04:07:38;8.00;73.50
12622;DHT22;6376;48.182;-1.644;2024-01-11T04:10:04;8.00;73.40
12622;DHT22;6376;48.182;-1.644;2024-01-11T04:12:30;8.00;73.40
12622;DHT22;6376;48.182;-1.644;2024-01-11T04:14:56;8.00;73.50
12622;DHT22;6376;48.182;-1.644;2024-01-11T04:17:22;8.00;73.30
12622;DHT22;6376;48.182;-1.644;2024-01-11T04:19:47;8.00;73.40
12622;DHT22;6376;48.182;-1.644;2024-01-11T04:22:13;8.00;73.30
12622;DHT22;6376;48.182;-1.644;2024-01-11T04:24:41;8.00;73.30
12622;DHT22;6376;48.182;-1.644;2024-01-11T04:27:06;8.00;73.40
12622;DHT22;6376;48.182;-1.644;2024-01-11T04:29:32;8.00;73.50
12622;DHT22;6376;48.182;-1.644;2024-01-11T04:31:58;7.90;73.30
12622;DHT22;6376;48.182;-1.644;2024-01-11T04:34:24;8.00;73.40
12622;DHT22;6376;48.182;-1.644;2024-01-11T04:36:49;7.90;73.30
12622;DHT22;6376;48.182;-1.644;2024-01-11T04:39:15;7.90;73.30
12622;DHT22;6376;48.182;-1.644;2024-01-11T04:41:41;8.00;73.40
12622;DHT22;6376;48.182;-1.644;2024-01-11T04:44:07;8.00;73.40
12622;DHT22;6376;48.182;-1.644;2024-01-11T04:46:32;8.00;73.30
12622;DHT22;6376;48.182;-1.644;2024-01-11T04:48:58;8.00;73.40
12622;DHT22;6376;48.182;-1.644;2024-01-11T04:51:23;8.00;73.40
12622;DHT22;6376;48.182;-1.644;2024-01-11T04:53:49;7.90;73.30
12622;DHT22;6376;48.182;-1.644;2024-01-11T04:56:15;7.90;73.30
12622;DHT22;6376;48.182;-1.644;2024-01-11T04:58:42;7.90;73.30
12622;DHT22;6376;48.182;-1.644;2024-01-11T05:01:12;8.00;73.30
12622;DHT22;6376;48.182;-1.644;2024-01-11T05:03:38;7.90;73.30
12622;DHT22;6376;48.182;-1.644;2024-01-11T05:06:04;7.90;73.10
12622;DHT22;6376;48.182;-1.644;2024-01-11T05:08:29;7.90;73.20
12622;DHT22;6376;48.182;-1.644;2024-01-11T05:10:55;7.90;73.20
12622;DHT22;6376;48.182;-1.644;2024-01-11T05:13:21;7.90;73.30
12622;DHT22;6376;48.182;-1.644;2024-01-11T05:15:47;7.90;73.20
12622;DHT22;6376;48.182;-1.644;2024-01-11T05:18:13;7.90;73.10
12622;DHT22;6376;48.182;-1.644;2024-01-11T05:20:38;7.90;73.00
12622;DHT22;6376;48.182;-1.644;2024-01-11T05:23:05;7.90;73.20
12622;DHT22;6376;48.182;-1.644;2024-01-11T05:25:31;7.90;73.10
12622;DHT22;6376;48.182;-1.644;2024-01-11T05:28:00;7.90;73.10
12622;DHT22;6376;48.182;-1.644;2024-01-11T05:30:26;7.90;73.10
12622;DHT22;6376;48.182;-1.644;2024-01-11T05:32:52;7.90;73.10
12622;DHT22;6376;48.182;-1.644;2024-01-11T05:35:18;7.90;73.10
12622;DHT22;6376;48.182;-1.644;2024-01-11T05:37:43;7.90;73.10
12622;DHT22;6376;48.182;-1.644;2024-01-11T05:40:09;7.90;73.10
12622;DHT22;6376;48.182;-1.644;2024-01-11T05:42:35;7.90;73.20
12622;DHT22;6376;48.182;-1.644;2024-01-11T05:45:00;7.90;73.10
12622;DHT22;6376;48.182;-1.644;2024-01-11T05:47:26;7.90;73.10
12622;DHT22;6376;48.182;-1.644;2024-01-11T05:49:51;7.90;73.20
12622;DHT22;6376;48.182;-1.644;2024-01-11T05:52:17;7.90;73.20
12622;DHT22;6376;48.182;-1.644;2024-01-11T05:54:43;7.90;73.10
12622;DHT22;6376;48.182;-1.644;2024-01-11T05:57:08;7.90;73.10
12622;DHT22;6376;48.182;-1.644;2024-01-11T05:59:34;7.90;73.00
12622;DHT22;6376;48.182;-1.644;2024-01-11T06:01:59;7.90;73.10
12622;DHT22;6376;48.182;-1.644;2024-01-11T06:04:27;7.90;73.10
12622;DHT22;6376;48.182;-1.644;2024-01-11T06:06:52;7.90;73.10
12622;DHT22;6376;48.182;-1.644;2024-01-11T06:09:18;7.90;73.10
12622;DHT22;6376;48.182;-1.644;2024-01-11T06:11:43;7.90;73.10
12622;DHT22;6376;48.182;-1.644;2024-01-11T06:14:09;7.90;73.00
12622;DHT22;6376;48.182;-1.644;2024-01-11T06:16:35;7.90;73.10
12622;DHT22;6376;48.182;-1.644;2024-01-11T06:19:01;7.90;73.10
12622;DHT22;6376;48.182;-1.644;2024-01-11T06:21:26;7.90;73.10
12622;DHT22;6376;48.182;-1.644;2024-01-11T06:23:52;7.90;73.80
12622;DHT22;6376;48.182;-1.644;2024-01-11T06:26:17;7.90;73.00
12622;DHT22;6376;48.182;-1.644;2024-01-11T06:28:43;7.80;73.00
12622;DHT22;6376;48.182;-1.644;2024-01-11T06:31:12;7.90;73.00
12622;DHT22;6376;48.182;-1.644;2024-01-11T06:33:37;7.90;73.00
12622;DHT22;6376;48.182;-1.644;2024-01-11T06:36:05;7.80;72.90
12622;DHT22;6376;48.182;-1.644;2024-01-11T06:38:32;7.90;73.00
12622;DHT22;6376;48.182;-1.644;2024-01-11T06:40:58;7.90;73.00
12622;DHT22;6376;48.182;-1.644;2024-01-11T06:43:24;7.80;72.80
12622;DHT22;6376;48.182;-1.644;2024-01-11T06:45:49;7.80;72.90
12622;DHT22;6376;48.182;-1.644;2024-01-11T06:48:15;7.80;72.90
12622;DHT22;6376;48.182;-1.644;2024-01-11T06:50:41;7.80;72.80
12622;DHT22;6376;48.182;-1.644;2024-01-11T06:53:07;7.80;72.80
12622;DHT22;6376;48.182;-1.644;2024-01-11T06:55:33;7.80;72.80
12622;DHT22;6376;48.182;-1.644;2024-01-11T06:57:58;7.80;72.80
12622;DHT22;6376;48.182;-1.644;2024-01-11T07:00:24;7.80;72.80
12622;DHT22;6376;48.182;-1.644;2024-01-11T07:02:50;7.80;72.80
12622;DHT22;6376;48.182;-1.644;2024-01-11T07:05:16;7.80;72.80
12622;DHT22;6376;48.182;-1.644;2024-01-11T07:07:42;7.80;72.80
12622;DHT22;6376;48.182;-1.644;2024-01-11T07:10:07;7.80;72.70
12622;DHT22;6376;48.182;-1.644;2024-01-11T07:12:34;7.80;72.70
12622;DHT22;6376;48.182;-1.644;2024-01-11T07:14:59;7.90;72.60
12622;DHT22;6376;48.182;-1.644;2024-01-11T07:17:25;7.80;72.60
12622;DHT22;6376;48.182;-1.644;2024-01-11T07:19:51;7.80;72.60
12622;DHT22;6376;48.182;-1.644;2024-01-11T07:22:17;7.80;72.60
12622;DHT22;6376;48.182;-1.644;2024-01-11T07:24:42;7.80;72.50
12622;DHT22;6376;48.182;-1.644;2024-01-11T07:27:08;7.80;72.70
12622;DHT22;6376;48.182;-1.644;2024-01-11T07:29:33;7.80;72.50
12622;DHT22;6376;48.182;-1.644;2024-01-11T07:32:00;7.80;72.50
12622;DHT22;6376;48.182;-1.644;2024-01-11T07:34:26;7.80;72.50
12622;DHT22;6376;48.182;-1.644;2024-01-11T07:36:52;7.80;72.50
12622;DHT22;6376;48.182;-1.644;2024-01-11T07:39:18;7.90;72.50
12622;DHT22;6376;48.182;-1.644;2024-01-11T07:41:44;7.90;72.50
12622;DHT22;6376;48.182;-1.644;2024-01-11T07:44:09;7.80;72.40
12622;DHT22;6376;48.182;-1.644;2024-01-11T07:46:35;7.80;72.60
12622;DHT22;6376;48.182;-1.644;2024-01-11T07:49:02;7.80;72.50
12622;DHT22;6376;48.182;-1.644;2024-01-11T07:51:28;7.80;72.50
12622;DHT22;6376;48.182;-1.644;2024-01-11T07:53:53;7.90;72.60
12622;DHT22;6376;48.182;-1.644;2024-01-11T07:56:19;7.90;72.60
12622;DHT22;6376;48.182;-1.644;2024-01-11T07:58:44;7.80;72.50
12622;DHT22;6376;48.182;-1.644;2024-01-11T08:01:10;7.80;72.50
12622;DHT22;6376;48.182;-1.644;2024-01-11T08:03:36;7.80;72.70
12622;DHT22;6376;48.182;-1.644;2024-01-11T08:06:01;7.80;72.60
12622;DHT22;6376;48.182;-1.644;2024-01-11T08:08:27;7.80;72.70
12622;DHT22;6376;48.182;-1.644;2024-01-11T08:10:53;7.80;72.70
12622;DHT22;6376;48.182;-1.644;2024-01-11T08:13:19;7.80;72.70
12622;DHT22;6376;48.182;-1.644;2024-01-11T08:15:46;7.80;72.70
12622;DHT22;6376;48.182;-1.644;2024-01-11T08:18:12;7.80;72.70
12622;DHT22;6376;48.182;-1.644;2024-01-11T08:20:39;7.90;72.60
12622;DHT22;6376;48.182;-1.644;2024-01-11T08:23:05;7.90;72.50
12622;DHT22;6376;48.182;-1.644;2024-01-11T08:25:32;7.90;72.60
12622;DHT22;6376;48.182;-1.644;2024-01-11T08:27:57;7.90;72.70
12622;DHT22;6376;48.182;-1.644;2024-01-11T08:30:23;7.80;72.70
12622;DHT22;6376;48.182;-1.644;2024-01-11T08:32:48;7.80;72.70
12622;DHT22;6376;48.182;-1.644;2024-01-11T08:35:14;7.90;72.70
12622;DHT22;6376;48.182;-1.644;2024-01-11T09:15:36;7.90;71.80
12622;DHT22;6376;48.182;-1.644;2024-01-11T09:18:01;7.90;72.40
12622;DHT22;6376;48.182;-1.644;2024-01-11T09:20:27;7.90;72.20
12622;DHT22;6376;48.182;-1.644;2024-01-11T09:22:52;7.90;72.20
12622;DHT22;6376;48.182;-1.644;2024-01-11T09:25:18;7.90;72.10
12622;DHT22;6376;48.182;-1.644;2024-01-11T09:27:44;7.90;72.20
12622;DHT22;6376;48.182;-1.644;2024-01-11T09:30:10;8.00;72.20
12622;DHT22;6376;48.182;-1.644;2024-01-11T09:32:35;7.90;72.10
12622;DHT22;6376;48.182;-1.644;2024-01-11T09:35:03;8.00;72.20
12622;DHT22;6376;48.182;-1.644;2024-01-11T09:37:30;8.00;72.10
12622;DHT22;6376;48.182;-1.644;2024-01-11T09:39:56;8.00;72.20
12622;DHT22;6376;48.182;-1.644;2024-01-11T09:42:22;8.00;72.10
12622;DHT22;6376;48.182;-1.644;2024-01-11T09:44:47;8.00;72.10
12622;DHT22;6376;48.182;-1.644;2024-01-11T09:47:15;8.10;72.20
12622;DHT22;6376;48.182;-1.644;2024-01-11T09:49:44;8.10;71.80
12622;DHT22;6376;48.182;-1.644;2024-01-11T09:52:11;8.20;72.00
12622;DHT22;6376;48.182;-1.644;2024-01-11T09:54:38;8.20;72.20
12622;DHT22;6376;48.182;-1.644;2024-01-11T09:57:07;8.40;72.20
12622;DHT22;6376;48.182;-1.644;2024-01-11T09:59:35;8.30;71.00
12622;DHT22;6376;48.182;-1.644;2024-01-11T10:02:02;8.50;71.30
12622;DHT22;6376;48.182;-1.644;2024-01-11T10:04:28;8.60;70.80
12622;DHT22;6376;48.182;-1.644;2024-01-11T10:06:54;8.70;70.10
12622;DHT22;6376;48.182;-1.644;2024-01-11T10:09:20;8.90;69.90
12622;DHT22;6376;48.182;-1.644;2024-01-11T10:11:46;8.90;69.40
12622;DHT22;6376;48.182;-1.644;2024-01-11T10:14:15;9.00;69.30
12622;DHT22;6376;48.182;-1.644;2024-01-11T10:16:43;9.10;69.30
12622;DHT22;6376;48.182;-1.644;2024-01-11T10:19:09;9.00;69.10
12622;DHT22;6376;48.182;-1.644;2024-01-11T10:21:38;9.10;69.00
12622;DHT22;6376;48.182;-1.644;2024-01-11T10:24:07;9.20;68.90
12622;DHT22;6376;48.182;-1.644;2024-01-11T10:26:32;9.20;68.60
12622;DHT22;6376;48.182;-1.644;2024-01-11T10:29:02;9.20;68.50
12622;DHT22;6376;48.182;-1.644;2024-01-11T10:31:30;9.30;68.30
12622;DHT22;6376;48.182;-1.644;2024-01-11T10:33:57;9.30;68.10
12622;DHT22;6376;48.182;-1.644;2024-01-11T10:36:23;9.40;68.20
12622;DHT22;6376;48.182;-1.644;2024-01-11T10:38:49;9.40;68.20
12622;DHT22;6376;48.182;-1.644;2024-01-11T10:41:18;9.40;68.00
12622;DHT22;6376;48.182;-1.644;2024-01-11T10:43:46;9.50;67.90
12622;DHT22;6376;48.182;-1.644;2024-01-11T10:46:15;9.60;67.60
12622;DHT22;6376;48.182;-1.644;2024-01-11T10:48:44;9.70;67.50
12622;DHT22;6376;48.182;-1.644;2024-01-11T10:51:16;9.70;67.20
12622;DHT22;6376;48.182;-1.644;2024-01-11T10:53:46;9.80;66.90
12622;DHT22;6376;48.182;-1.644;2024-01-11T10:56:13;9.90;66.70
12622;DHT22;6376;48.182;-1.644;2024-01-11T10:58:43;9.90;66.60
12622;DHT22;6376;48.182;-1.644;2024-01-11T11:01:11;10.00;66.40
12622;DHT22;6376;48.182;-1.644;2024-01-11T11:03:37;10.10;66.30
12622;DHT22;6376;48.182;-1.644;2024-01-11T11:06:05;10.10;66.00
12622;DHT22;6376;48.182;-1.644;2024-01-11T11:08:31;10.20;65.90
12622;DHT22;6376;48.182;-1.644;2024-01-11T11:10:58;10.20;65.70
12622;DHT22;6376;48.182;-1.644;2024-01-11T11:13:24;10.30;65.60
12622;DHT22;6376;48.182;-1.644;2024-01-11T11:15:51;10.30;65.40
12622;DHT22;6376;48.182;-1.644;2024-01-11T11:18:17;10.30;65.30
12622;DHT22;6376;48.182;-1.644;2024-01-11T11:20:47;10.40;65.20
12622;DHT22;6376;48.182;-1.644;2024-01-11T11:23:15;10.40;65.10
12622;DHT22;6376;48.182;-1.644;2024-01-11T11:25:44;10.50;65.10
12622;DHT22;6376;48.182;-1.644;2024-01-11T11:28:14;10.50;65.00
12622;DHT22;6376;48.182;-1.644;2024-01-11T11:30:42;10.50;65.00
12622;DHT22;6376;48.182;-1.644;2024-01-11T11:33:16;10.50;64.90
12622;DHT22;6376;48.182;-1.644;2024-01-11T11:35:42;10.40;65.20
12622;DHT22;6376;48.182;-1.644;2024-01-11T11:38:08;10.30;65.80
12622;DHT22;6376;48.182;-1.644;2024-01-11T11:40:42;10.10;66.10
12622;DHT22;6376;48.182;-1.644;2024-01-11T11:43:10;10.00;66.50
12622;DHT22;6376;48.182;-1.644;2024-01-11T11:45:37;9.90;65.40
12622;DHT22;6376;48.182;-1.644;2024-01-11T11:51:08;9.70;65.70
12622;DHT22;6376;48.182;-1.644;2024-01-11T11:53:39;9.60;66.00
12622;DHT22;6376;48.182;-1.644;2024-01-11T11:56:06;9.60;67.00
12622;DHT22;6376;48.182;-1.644;2024-01-11T11:58:33;9.60;67.40
12622;DHT22;6376;48.182;-1.644;2024-01-11T12:01:00;9.60;67.80
12622;DHT22;6376;48.182;-1.644;2024-01-11T12:03:33;9.60;68.00
12622;DHT22;6376;48.182;-1.644;2024-01-11T12:05:59;9.60;68.20
12622;DHT22;6376;48.182;-1.644;2024-01-11T12:08:25;9.50;68.20
12622;DHT22;6376;48.182;-1.644;2024-01-11T12:10:52;9.50;68.20
12622;DHT22;6376;48.182;-1.644;2024-01-11T12:13:20;9.50;68.30
12622;DHT22;6376;48.182;-1.644;2024-01-11T12:15:46;9.50;68.40
12622;DHT22;6376;48.182;-1.644;2024-01-11T12:18:12;9.40;68.60
12622;DHT22;6376;48.182;-1.644;2024-01-11T12:20:38;9.40;69.60
12622;DHT22;6376;48.182;-1.644;2024-01-11T12:23:03;9.40;69.10
12622;DHT22;6376;48.182;-1.644;2024-01-11T12:25:30;9.40;69.10
12622;DHT22;6376;48.182;-1.644;2024-01-11T12:27:57;9.40;69.30
12622;DHT22;6376;48.182;-1.644;2024-01-11T12:30:23;9.40;69.40
12622;DHT22;6376;48.182;-1.644;2024-01-11T12:32:50;9.30;69.30
12622;DHT22;6376;48.182;-1.644;2024-01-11T12:35:16;9.30;69.40
12622;DHT22;6376;48.182;-1.644;2024-01-11T12:37:55;9.30;69.40
12622;DHT22;6376;48.182;-1.644;2024-01-11T12:40:24;9.30;69.50
12622;DHT22;6376;48.182;-1.644;2024-01-11T12:42:50;9.30;69.70
12622;DHT22;6376;48.182;-1.644;2024-01-11T12:45:16;9.30;69.60
12622;DHT22;6376;48.182;-1.644;2024-01-11T12:47:43;9.30;69.70
12622;DHT22;6376;48.182;-1.644;2024-01-11T12:50:10;9.30;69.80
12622;DHT22;6376;48.182;-1.644;2024-01-11T12:52:38;9.30;69.90
12622;DHT22;6376;48.182;-1.644;2024-01-11T12:55:04;9.30;70.00
12622;DHT22;6376;48.182;-1.644;2024-01-11T12:57:30;9.30;70.10
12622;DHT22;6376;48.182;-1.644;2024-01-11T13:00:12;9.30;70.20
12622;DHT22;6376;48.182;-1.644;2024-01-11T13:02:39;9.30;70.30
12622;DHT22;6376;48.182;-1.644;2024-01-11T13:05:05;9.20;70.30
12622;DHT22;6376;48.182;-1.644;2024-01-11T13:07:32;9.20;70.30
12622;DHT22;6376;48.182;-1.644;2024-01-11T13:09:59;9.20;70.30
12622;DHT22;6376;48.182;-1.644;2024-01-11T13:12:24;9.30;70.40
12622;DHT22;6376;48.182;-1.644;2024-01-11T13:14:50;9.20;70.40
12622;DHT22;6376;48.182;-1.644;2024-01-11T13:17:18;9.20;70.40
12622;DHT22;6376;48.182;-1.644;2024-01-11T13:19:44;9.20;70.50
12622;DHT22;6376;48.182;-1.644;2024-01-11T13:22:10;9.20;70.60
12622;DHT22;6376;48.182;-1.644;2024-01-11T13:24:36;9.20;70.60
12622;DHT22;6376;48.182;-1.644;2024-01-11T13:27:01;9.20;70.80
12622;DHT22;6376;48.182;-1.644;2024-01-11T13:29:27;9.20;70.80
12622;DHT22;6376;48.182;-1.644;2024-01-11T13:31:53;9.20;70.90
12622;DHT22;6376;48.182;-1.644;2024-01-11T13:34:18;9.20;70.90
12622;DHT22;6376;48.182;-1.644;2024-01-11T13:36:45;9.20;70.90
12622;DHT22;6376;48.182;-1.644;2024-01-11T13:39:10;9.10;71.00
12622;DHT22;6376;48.182;-1.644;2024-01-11T13:41:36;9.10;71.00
12622;DHT22;6376;48.182;-1.644;2024-01-11T13:44:02;9.10;71.00
12622;DHT22;6376;48.182;-1.644;2024-01-11T13:46:31;9.10;70.90
12622;DHT22;6376;48.182;-1.644;2024-01-11T13:48:56;9.10;71.10
12622;DHT22;6376;48.182;-1.644;2024-01-11T13:51:22;9.10;71.00
12622;DHT22;6376;48.182;-1.644;2024-01-11T13:53:48;9.10;71.00
12622;DHT22;6376;48.182;-1.644;2024-01-11T13:56:13;9.10;71.20
12622;DHT22;6376;48.182;-1.644;2024-01-11T13:58:39;9.10;71.20
12622;DHT22;6376;48.182;-1.644;2024-01-11T14:01:04;9.10;71.10
12622;DHT22;6376;48.182;-1.644;2024-01-11T14:03:30;9.10;71.20
12622;DHT22;6376;48.182;-1.644;2024-01-11T14:05:56;9.10;71.20
12622;DHT22;6376;48.182;-1.644;2024-01-11T14:08:22;9.10;71.10
12622;DHT22;6376;48.182;-1.644;2024-01-11T14:10:47;9.10;71.20
12622;DHT22;6376;48.182;-1.644;2024-01-11T14:13:13;9.10;71.30
12622;DHT22;6376;48.182;-1.644;2024-01-11T14:15:39;9.10;71.20
12622;DHT22;6376;48.182;-1.644;2024-01-11T14:18:06;9.10;71.20
12622;DHT22;6376;48.182;-1.644;2024-01-11T14:20:33;9.10;71.20
12622;DHT22;6376;48.182;-1.644;2024-01-11T14:22:59;9.00;71.10
12622;DHT22;6376;48.182;-1.644;2024-01-11T14:25:25;9.00;71.30
12622;DHT22;6376;48.182;-1.644;2024-01-11T14:27:51;9.00;71.20
12622;DHT22;6376;48.182;-1.644;2024-01-11T14:30:18;9.00;71.20
12622;DHT22;6376;48.182;-1.644;2024-01-11T14:32:44;9.00;71.20
12622;DHT22;6376;48.182;-1.644;2024-01-11T14:35:10;9.00;71.20
12622;DHT22;6376;48.182;-1.644;2024-01-11T14:37:38;9.00;71.20
12622;DHT22;6376;48.182;-1.644;2024-01-11T14:40:08;9.00;71.30
12622;DHT22;6376;48.182;-1.644;2024-01-11T14:42:37;9.00;71.30
12622;DHT22;6376;48.182;-1.644;2024-01-11T14:45:03;9.00;71.30
12622;DHT22;6376;48.182;-1.644;2024-01-11T14:47:29;9.00;71.40
12622;DHT22;6376;48.182;-1.644;2024-01-11T14:49:57;9.00;71.50
12622;DHT22;6376;48.182;-1.644;2024-01-11T14:52:22;9.00;71.50
12622;DHT22;6376;48.182;-1.644;2024-01-11T14:54:48;9.00;71.40
12622;DHT22;6376;48.182;-1.644;2024-01-11T14:57:14;9.00;71.40
12622;DHT22;6376;48.182;-1.644;2024-01-11T14:59:40;9.00;71.50
12622;DHT22;6376;48.182;-1.644;2024-01-11T15:02:06;9.00;71.40
12622;DHT22;6376;48.182;-1.644;2024-01-11T15:04:32;9.00;71.50
12622;DHT22;6376;48.182;-1.644;2024-01-11T15:06:57;9.00;71.50
12622;DHT22;6376;48.182;-1.644;2024-01-11T15:09:23;9.10;71.60
12622;DHT22;6376;48.182;-1.644;2024-01-11T15:11:48;9.00;71.60
12622;DHT22;6376;48.182;-1.644;2024-01-11T15:14:15;9.10;71.60
12622;DHT22;6376;48.182;-1.644;2024-01-11T15:16:41;9.00;71.60
12622;DHT22;6376;48.182;-1.644;2024-01-11T15:19:09;9.00;71.60
12622;DHT22;6376;48.182;-1.644;2024-01-11T15:21:35;9.00;71.50
12622;DHT22;6376;48.182;-1.644;2024-01-11T15:24:01;9.00;71.60
12622;DHT22;6376;48.182;-1.644;2024-01-11T15:26:27;9.00;71.60
12622;DHT22;6376;48.182;-1.644;2024-01-11T15:28:53;9.00;71.60
12622;DHT22;6376;48.182;-1.644;2024-01-11T15:31:18;9.00;71.70
12622;DHT22;6376;48.182;-1.644;2024-01-11T15:33:44;9.00;71.80
12622;DHT22;6376;48.182;-1.644;2024-01-11T15:36:11;8.90;71.70
12622;DHT22;6376;48.182;-1.644;2024-01-11T15:38:36;8.90;71.80
12622;DHT22;6376;48.182;-1.644;2024-01-11T15:41:02;8.90;71.70
12622;DHT22;6376;48.182;-1.644;2024-01-11T15:43:28;8.90;71.80
12622;DHT22;6376;48.182;-1.644;2024-01-11T15:45:54;8.90;71.80
12622;DHT22;6376;48.182;-1.644;2024-01-11T15:48:19;8.90;71.80
12622;DHT22;6376;48.182;-1.644;2024-01-11T15:50:45;8.90;71.80
12622;DHT22;6376;48.182;-1.644;2024-01-11T15:53:11;8.90;71.90
12622;DHT22;6376;48.182;-1.644;2024-01-11T15:55:36;8.90;71.90
12622;DHT22;6376;48.182;-1.644;2024-01-11T15:58:02;8.90;71.90
12622;DHT22;6376;48.182;-1.644;2024-01-11T16:00:29;8.90;72.00
12622;DHT22;6376;48.182;-1.644;2024-01-11T16:02:56;8.90;72.10
12622;DHT22;6376;48.182;-1.644;2024-01-11T16:05:22;8.90;72.10
12622;DHT22;6376;48.182;-1.644;2024-01-11T16:07:49;8.90;72.20
12622;DHT22;6376;48.182;-1.644;2024-01-11T16:10:15;8.90;72.10
12622;DHT22;6376;48.182;-1.644;2024-01-11T16:12:41;8.90;72.20
12622;DHT22;6376;48.182;-1.644;2024-01-11T16:15:07;8.90;73.00
12622;DHT22;6376;48.182;-1.644;2024-01-11T16:17:33;8.90;72.30
12622;DHT22;6376;48.182;-1.644;2024-01-11T16:19:58;8.90;72.30